createdAt,value
2023-03-04T00:01:06.911Z,-0.07
2023-03-04T00:03:40.034Z,-0.11
2023-03-04T00:06:13.028Z,-0.19
2023-03-04T00:08:45.925Z,-0.36
2023-03-04T00:11:18.777Z,-0.77
2023-03-04T00:13:53.245Z,-0.57
2023-03-04T00:16:27.428Z,-0.40
2023-03-04T00:19:01.007Z,-0.32
2023-03-04T00:21:34.130Z,-0.75
2023-03-04T00:24:08.019Z,-0.86
2023-03-04T00:26:48.074Z,-0.47
2023-03-04T00:29:23.003Z,-0.82
2023-03-04T00:31:56.101Z,-0.78
2023-03-04T00:34:30.741Z,-0.83
2023-03-04T00:37:05.572Z,-0.67
2023-03-04T00:39:38.588Z,-0.81
2023-03-04T00:42:11.421Z,-0.70
2023-03-04T00:44:46.412Z,-0.86
2023-03-04T00:47:19.643Z,-1.55
2023-03-04T00:49:53.031Z,-1.69
2023-03-04T00:52:25.890Z,-1.73
2023-03-04T00:54:58.765Z,-1.21
2023-03-04T00:57:31.642Z,-1.08
2023-03-04T01:00:07.840Z,-1.23
2023-03-04T01:02:41.167Z,-1.19
2023-03-04T01:05:14.258Z,-1.59
2023-03-04T01:07:47.200Z,-1.40
2023-03-04T01:10:20.540Z,-1.60
2023-03-04T01:12:53.705Z,-1.52
2023-03-04T01:15:28.252Z,-1.31
2023-03-04T01:18:01.659Z,-1.48
2023-03-04T01:20:34.637Z,-1.55
2023-03-04T01:23:09.001Z,-1.37
2023-03-04T01:25:41.837Z,-1.82
2023-03-04T01:28:14.864Z,-1.76
2023-03-04T01:30:49.174Z,-1.48
2023-03-04T01:33:23.125Z,-1.97
2023-03-04T01:35:55.974Z,-1.25
2023-03-04T01:38:29.184Z,-1.68
2023-03-04T01:41:02.469Z,-1.54
2023-03-04T01:43:37.858Z,-1.62
2023-03-04T01:46:15.167Z,-1.62
2023-03-04T01:48:48.707Z,-1.94
2023-03-04T01:51:22.856Z,-1.97
2023-03-04T01:53:56.140Z,-2.16
2023-03-04T01:56:31.376Z,-1.78
2023-03-04T01:59:12.876Z,-1.70
2023-03-04T02:01:50.404Z,-2.29
2023-03-04T02:04:26.164Z,-2.16
2023-03-04T02:07:00.556Z,-2.47
2023-03-04T02:09:35.784Z,-1.96
2023-03-04T02:12:08.668Z,-2.20
2023-03-04T02:14:41.624Z,-2.35
2023-03-04T02:17:16.952Z,-2.17
2023-03-04T02:19:57.734Z,-1.90
2023-03-04T02:22:30.762Z,-2.24
2023-03-04T02:25:09.197Z,-2.22
2023-03-04T02:27:43.735Z,-2.20
2023-03-04T02:30:18.474Z,-2.14
2023-03-04T02:32:51.333Z,-2.31
2023-03-04T02:35:24.655Z,-2.29
2023-03-04T02:37:57.592Z,-2.25
2023-03-04T02:40:34.472Z,-2.86
2023-03-04T02:43:11.349Z,-2.67
2023-03-04T02:45:46.618Z,-2.39
2023-03-04T02:48:21.944Z,-2.56
2023-03-04T02:50:55.578Z,-2.75
2023-03-04T02:53:28.840Z,-2.53
2023-03-04T02:56:01.793Z,-2.69
2023-03-04T02:58:41.508Z,-2.56
2023-03-04T03:01:16.341Z,-1.85
2023-03-04T03:03:50.336Z,-1.50
2023-03-04T03:06:23.159Z,-1.53
2023-03-04T03:08:56.288Z,-1.27
2023-03-04T03:11:29.470Z,-1.22
2023-03-04T03:14:03.756Z,-1.50
2023-03-04T03:16:37.144Z,-1.07
2023-03-04T03:19:11.567Z,-1.57
2023-03-04T03:21:45.110Z,-1.49
2023-03-04T03:24:18.167Z,-1.89
2023-03-04T03:26:50.994Z,-1.74
2023-03-04T03:29:25.240Z,-1.45
2023-03-04T03:31:58.118Z,-1.87
2023-03-04T03:34:31.001Z,-1.42
2023-03-04T03:37:03.976Z,-1.08
2023-03-04T03:39:36.943Z,-0.68
2023-03-04T03:42:10.035Z,-1.08
2023-03-04T03:44:44.467Z,-1.09
2023-03-04T03:47:17.728Z,-0.83
2023-03-04T03:49:50.602Z,-1.01
2023-03-04T03:52:23.577Z,-0.77
2023-03-04T03:54:56.432Z,-0.51
2023-03-04T03:57:29.696Z,-0.64
2023-03-04T04:00:04.991Z,-0.49
2023-03-04T04:02:45.304Z,-0.46
2023-03-04T04:05:18.218Z,-0.59
2023-03-04T04:07:53.739Z,-0.56
2023-03-04T04:10:26.887Z,-0.37
2023-03-04T04:12:59.826Z,-0.27
2023-03-04T04:15:34.110Z,-0.66
2023-03-04T04:18:07.394Z,-0.58
2023-03-04T04:20:40.280Z,-0.28
2023-03-04T04:23:13.209Z,-0.64
2023-03-04T04:25:47.017Z,-0.30
2023-03-04T04:28:19.779Z,-0.38
2023-03-04T04:30:54.561Z,-0.10
2023-03-04T04:33:28.179Z,0.00
2023-03-04T04:36:01.328Z,0.15
2023-03-04T04:38:34.521Z,0.09
2023-03-04T04:41:07.825Z,-0.02
2023-03-04T04:43:40.694Z,0.19
2023-03-04T04:46:15.437Z,-0.10
2023-03-04T04:48:48.573Z,-0.04
2023-03-04T04:51:21.408Z,-0.18
2023-03-04T04:53:54.285Z,0.18
2023-03-04T04:56:28.091Z,0.28
2023-03-04T04:59:02.635Z,0.40
2023-03-04T05:01:37.412Z,0.32
2023-03-04T05:04:10.357Z,0.11
2023-03-04T05:06:43.283Z,0.66
2023-03-04T05:09:16.281Z,0.35
2023-03-04T05:11:49.320Z,0.59
2023-03-04T05:14:22.452Z,0.68
2023-03-04T05:16:56.671Z,0.72
2023-03-04T05:19:29.727Z,0.86
2023-03-04T05:22:02.948Z,0.48
2023-03-04T05:24:35.838Z,0.65
2023-03-04T05:27:09.213Z,0.68
2023-03-04T05:29:45.032Z,0.85
2023-03-04T05:32:20.072Z,0.64
2023-03-04T05:34:53.143Z,0.58
2023-03-04T05:37:26.309Z,0.68
2023-03-04T05:39:59.203Z,0.63
2023-03-04T05:42:32.204Z,0.87
2023-03-04T05:45:05.760Z,0.79
2023-03-04T05:47:40.294Z,0.47
2023-03-04T05:50:13.682Z,0.80
2023-03-04T05:52:46.934Z,0.76
2023-03-04T05:55:20.049Z,0.92
2023-03-04T05:57:53.134Z,0.69
2023-03-04T06:00:27.243Z,0.95
2023-03-04T06:03:01.472Z,0.85
2023-03-04T06:05:34.315Z,0.76
2023-03-04T06:08:07.339Z,0.81
2023-03-04T06:10:41.883Z,0.83
2023-03-04T06:13:15.326Z,1.02
2023-03-04T06:15:48.623Z,0.90
2023-03-04T06:18:23.062Z,0.71
2023-03-04T06:20:58.861Z,0.56
2023-03-04T06:23:32.566Z,0.86
2023-03-04T06:26:09.311Z,0.62
2023-03-04T06:28:42.253Z,0.98
2023-03-04T06:31:15.264Z,1.04
2023-03-04T06:33:49.585Z,0.89
2023-03-04T06:36:22.765Z,0.86
2023-03-04T06:38:55.890Z,1.12
2023-03-04T06:41:29.077Z,1.25
2023-03-04T06:44:02.557Z,1.20
2023-03-04T06:46:36.107Z,1.18
2023-03-04T06:49:10.552Z,1.15
2023-03-04T06:51:43.755Z,0.93
2023-03-04T06:54:16.699Z,0.90
2023-03-04T06:56:49.653Z,1.15
2023-03-04T06:59:22.513Z,1.04
2023-03-04T07:01:55.804Z,1.10
2023-03-04T07:04:30.101Z,1.06
2023-03-04T07:07:02.915Z,1.09
2023-03-04T07:09:35.989Z,1.31
2023-03-04T07:12:10.300Z,1.36
2023-03-04T07:14:43.188Z,1.66
2023-03-04T07:17:16.213Z,1.46
2023-03-04T07:19:50.364Z,1.37
2023-03-04T07:22:23.182Z,1.77
2023-03-04T07:24:56.139Z,1.77
2023-03-04T07:27:28.964Z,1.46
2023-03-04T07:30:01.748Z,1.59
2023-03-04T07:32:35.963Z,1.52
2023-03-04T07:35:10.856Z,1.62
2023-03-04T07:37:43.739Z,1.56
2023-03-04T07:40:16.947Z,1.53
2023-03-04T07:42:51.314Z,1.42
2023-03-04T07:45:25.387Z,1.69
2023-03-04T07:48:01.150Z,1.78
2023-03-04T07:50:35.690Z,1.85
2023-03-04T07:53:08.831Z,1.67
2023-03-04T07:55:41.695Z,1.83
2023-03-04T07:58:14.657Z,1.65
2023-03-04T08:00:47.557Z,1.73
2023-03-04T08:03:20.432Z,1.84
2023-03-04T08:05:54.762Z,1.83
2023-03-04T08:08:27.590Z,1.83
2023-03-04T08:11:02.783Z,1.89
2023-03-04T08:13:36.482Z,1.64
2023-03-04T08:16:10.105Z,1.82
2023-03-04T08:18:43.833Z,1.89
2023-03-04T08:21:19.923Z,1.86
2023-03-04T08:23:53.622Z,1.82
2023-03-04T08:26:28.821Z,2.03
2023-03-04T08:29:03.410Z,2.06
2023-03-04T08:31:36.977Z,2.00
2023-03-04T08:34:11.550Z,1.96
2023-03-04T08:36:45.825Z,2.07
2023-03-04T08:39:19.762Z,1.91
2023-03-04T08:41:52.613Z,1.86
2023-03-04T08:44:26.796Z,2.28
2023-03-04T08:46:59.747Z,2.56
2023-03-04T08:49:32.567Z,2.22
2023-03-04T08:52:07.546Z,2.19
2023-03-04T08:54:40.511Z,2.22
2023-03-04T08:57:13.357Z,2.35
2023-03-04T08:59:46.192Z,2.39
2023-03-04T09:02:19.060Z,2.42
2023-03-04T09:04:51.777Z,2.32
2023-03-04T09:07:25.968Z,2.33
2023-03-04T09:09:58.877Z,2.26
2023-03-04T09:12:31.645Z,2.30
2023-03-04T09:15:11.602Z,2.58
2023-03-04T09:17:44.797Z,2.35
2023-03-04T09:20:17.766Z,2.41
2023-03-04T09:22:52.292Z,2.40
2023-03-04T09:25:25.076Z,2.47
2023-03-04T09:27:58.076Z,2.81
2023-03-04T09:30:31.018Z,2.62
2023-03-04T09:33:03.862Z,2.79
2023-03-04T09:35:36.995Z,2.81
2023-03-04T09:38:11.642Z,2.96
2023-03-04T09:40:48.176Z,2.97
2023-03-04T09:43:27.552Z,3.10
2023-03-04T09:46:04.063Z,3.02
2023-03-04T09:48:44.807Z,2.84
2023-03-04T09:51:24.143Z,2.89
2023-03-04T09:54:08.383Z,2.99
2023-03-04T09:56:44.991Z,3.14
2023-03-04T09:59:25.809Z,3.10
2023-03-04T10:02:00.761Z,3.02
2023-03-04T10:04:40.669Z,3.16
2023-03-04T10:07:19.855Z,3.10
2023-03-04T10:10:01.281Z,3.35
2023-03-04T10:12:40.147Z,3.40
2023-03-04T10:15:24.470Z,3.34
2023-03-04T10:18:03.626Z,3.24
2023-03-04T10:20:48.661Z,3.48
2023-03-04T10:23:25.773Z,3.58
2023-03-04T10:26:02.376Z,3.80
2023-03-04T10:28:36.466Z,3.56
2023-03-04T10:31:17.121Z,3.55
2023-03-04T10:33:51.521Z,3.49
2023-03-04T10:36:37.876Z,3.56
2023-03-04T10:39:12.829Z,3.69
2023-03-04T10:41:56.180Z,3.66
2023-03-04T10:44:30.342Z,3.75
2023-03-04T10:47:03.322Z,3.82
2023-03-04T10:49:51.314Z,3.77
2023-03-04T10:52:32.438Z,3.71
2023-03-04T10:55:15.682Z,3.77
2023-03-04T10:57:53.433Z,3.86
2023-03-04T11:00:30.512Z,3.79
2023-03-04T11:03:29.352Z,3.60
2023-03-04T11:06:16.912Z,3.67
2023-03-04T11:08:56.724Z,3.60
2023-03-04T11:11:34.760Z,4.03
2023-03-04T11:14:19.826Z,3.60
2023-03-04T11:16:56.091Z,3.91
2023-03-04T11:19:36.487Z,3.54
2023-03-04T11:22:15.433Z,3.81
2023-03-04T11:24:57.335Z,3.99
2023-03-04T11:27:39.377Z,3.75
2023-03-04T11:30:28.126Z,3.96
2023-03-04T11:33:11.173Z,3.77
2023-03-04T11:35:53.121Z,3.60
2023-03-04T11:38:32.598Z,3.85
2023-03-04T11:41:12.148Z,4.18
2023-03-04T11:43:47.743Z,4.03
2023-03-04T11:46:56.029Z,4.23
2023-03-04T11:50:03.789Z,4.08
2023-03-04T11:52:53.550Z,4.23
2023-03-04T11:55:36.912Z,4.10
2023-03-04T11:58:35.157Z,4.14
2023-03-04T12:01:11.367Z,4.08
2023-03-04T12:04:18.391Z,4.20
2023-03-04T12:07:02.071Z,4.45
2023-03-04T12:09:48.085Z,4.19
2023-03-04T12:12:35.950Z,4.25
2023-03-04T12:15:18.685Z,4.31
2023-03-04T12:18:14.259Z,4.34
2023-03-04T12:21:16.959Z,4.19
2023-03-04T12:24:12.361Z,4.43
2023-03-04T12:26:52.046Z,4.12
2023-03-04T12:29:32.986Z,4.33
2023-03-04T12:32:14.502Z,4.54
2023-03-04T12:35:04.503Z,4.27
2023-03-04T12:37:58.559Z,4.65
2023-03-04T12:40:44.104Z,4.40
2023-03-04T12:43:36.291Z,4.41
2023-03-04T12:46:21.665Z,4.40
2023-03-04T12:49:09.050Z,4.71
2023-03-04T12:51:51.459Z,4.29
2023-03-04T12:54:33.007Z,4.47
2023-03-04T12:57:11.868Z,4.47
2023-03-04T12:59:53.613Z,4.70
2023-03-04T13:02:43.178Z,4.35
2023-03-04T13:05:40.636Z,4.33
2023-03-04T13:08:25.005Z,4.25
2023-03-04T13:11:04.902Z,4.28
2023-03-04T13:13:41.823Z,4.33
2023-03-04T13:16:33.701Z,4.47
2023-03-04T13:19:39.951Z,4.25
2023-03-04T13:22:44.003Z,4.41
2023-03-04T13:25:35.070Z,4.50
2023-03-04T13:28:27.543Z,4.52
2023-03-04T13:31:13.490Z,4.70
2023-03-04T13:34:01.179Z,5.03
2023-03-04T13:36:59.131Z,4.72
2023-03-04T13:39:36.818Z,4.72
2023-03-04T13:42:41.016Z,4.92
2023-03-04T13:45:34.230Z,5.10
2023-03-04T13:48:24.338Z,4.92
2023-03-04T13:50:57.842Z,5.07
2023-03-04T13:53:54.782Z,5.04
2023-03-04T13:56:36.994Z,4.92
2023-03-04T13:59:22.173Z,4.69
2023-03-04T14:02:17.121Z,4.96
2023-03-04T14:04:59.863Z,5.00
2023-03-04T14:07:35.081Z,4.94
2023-03-04T14:10:23.271Z,4.75
2023-03-04T14:12:59.198Z,5.17
2023-03-04T14:15:35.358Z,5.06
2023-03-04T14:18:12.934Z,4.97
2023-03-04T14:20:50.538Z,5.03
2023-03-04T14:23:29.258Z,4.89
2023-03-04T14:26:06.736Z,5.21
2023-03-04T14:28:48.134Z,5.07
2023-03-04T14:31:24.975Z,5.03
2023-03-04T14:34:02.791Z,4.74
2023-03-04T14:36:38.892Z,4.85
2023-03-04T14:39:18.191Z,4.69
2023-03-04T14:41:52.683Z,4.76
2023-03-04T14:44:36.033Z,4.65
2023-03-04T14:47:19.732Z,4.73
2023-03-04T14:49:54.204Z,4.75
2023-03-04T14:52:32.803Z,4.76
2023-03-04T14:55:25.108Z,4.80
2023-03-04T14:58:08.400Z,4.67
2023-03-04T15:00:42.082Z,4.66
2023-03-04T15:03:22.144Z,4.60
2023-03-04T15:05:58.448Z,4.68
2023-03-04T15:08:36.540Z,4.65
2023-03-04T15:11:15.073Z,4.52
2023-03-04T15:13:50.493Z,4.52
2023-03-04T15:16:25.870Z,4.52
2023-03-04T15:19:03.290Z,4.50
2023-03-04T15:21:40.223Z,4.42
2023-03-04T15:24:15.471Z,4.38
2023-03-04T15:26:50.839Z,4.41
2023-03-04T15:29:23.990Z,4.42
2023-03-04T15:31:57.256Z,4.47
2023-03-04T15:34:30.316Z,4.46
2023-03-04T15:37:04.715Z,4.41
2023-03-04T15:39:37.887Z,4.56
2023-03-04T15:42:13.640Z,4.42
2023-03-04T15:44:46.967Z,4.46
2023-03-04T15:47:19.933Z,4.58
2023-03-04T15:49:53.551Z,4.52
2023-03-04T15:52:27.700Z,4.56
2023-03-04T15:55:00.598Z,4.45
2023-03-04T15:57:34.296Z,4.45
2023-03-04T16:00:09.059Z,4.34
2023-03-04T16:02:44.581Z,4.37
2023-03-04T16:05:17.976Z,4.52
2023-03-04T16:07:53.459Z,4.30
2023-03-04T16:10:29.781Z,4.28
2023-03-04T16:13:02.650Z,4.45
2023-03-04T16:15:35.581Z,4.44
2023-03-04T16:18:10.917Z,4.39
2023-03-04T16:20:54.344Z,4.44
2023-03-04T16:23:28.865Z,4.48
2023-03-04T16:26:01.792Z,4.33
2023-03-04T16:28:34.751Z,4.37
2023-03-04T16:31:08.106Z,4.47
2023-03-04T16:33:41.195Z,4.47
2023-03-04T16:36:16.973Z,4.46
2023-03-04T16:38:52.660Z,4.25
2023-03-04T16:41:28.522Z,4.39
2023-03-04T16:44:02.329Z,4.26
2023-03-04T16:46:35.666Z,4.42
2023-03-04T16:49:08.737Z,4.27
2023-03-04T16:51:44.609Z,4.38
2023-03-04T16:54:23.905Z,4.23
2023-03-04T16:56:57.208Z,4.12
2023-03-04T16:59:30.707Z,4.14
2023-03-04T17:02:03.852Z,4.04
2023-03-04T17:04:36.788Z,4.05
2023-03-04T17:07:09.634Z,4.08
2023-03-04T17:09:44.121Z,3.97
2023-03-04T17:12:16.992Z,4.11
2023-03-04T17:14:49.850Z,4.13
2023-03-04T17:17:32.956Z,3.94
2023-03-04T17:20:07.015Z,4.03
2023-03-04T17:22:39.880Z,3.90
2023-03-04T17:25:15.221Z,3.98
2023-03-04T17:27:48.248Z,3.97
2023-03-04T17:30:21.041Z,3.98
2023-03-04T17:32:53.960Z,3.89
2023-03-04T17:35:26.929Z,3.86
2023-03-04T17:38:00.123Z,3.91
2023-03-04T17:40:34.629Z,3.93
2023-03-04T17:43:11.424Z,3.82
2023-03-04T17:45:45.436Z,3.94
2023-03-04T17:48:18.434Z,3.79
2023-03-04T17:50:51.875Z,3.82
2023-03-04T17:53:24.693Z,3.80
2023-03-04T17:56:01.680Z,3.88
2023-03-04T17:58:36.872Z,3.81
2023-03-04T18:01:17.687Z,3.90
2023-03-04T18:03:51.622Z,3.88
2023-03-04T18:06:25.344Z,3.80
2023-03-04T18:08:58.415Z,3.77
2023-03-04T18:11:34.635Z,3.79
2023-03-04T18:14:07.839Z,3.72
2023-03-04T18:16:40.867Z,3.55
2023-03-04T18:19:13.781Z,3.80
2023-03-04T18:21:46.874Z,3.79
2023-03-04T18:24:19.673Z,3.69
2023-03-04T18:26:54.590Z,3.68
2023-03-04T18:29:28.492Z,3.72
2023-03-04T18:32:02.081Z,3.69
2023-03-04T18:34:35.030Z,3.74
2023-03-04T18:37:08.016Z,3.74
2023-03-04T18:39:40.926Z,3.74
2023-03-04T18:42:15.508Z,3.71
2023-03-04T18:44:48.477Z,3.81
2023-03-04T18:47:22.586Z,3.77
2023-03-04T18:49:55.446Z,3.57
2023-03-04T18:52:28.401Z,3.70
2023-03-04T18:55:01.258Z,3.60
2023-03-04T18:57:35.804Z,3.61
2023-03-04T19:00:10.644Z,3.57
2023-03-04T19:02:48.014Z,3.53
2023-03-04T19:05:26.666Z,3.66
2023-03-04T19:08:00.741Z,3.60
2023-03-04T19:10:34.135Z,3.50
2023-03-04T19:13:10.191Z,3.62
2023-03-04T19:15:44.217Z,3.73
2023-03-04T19:18:18.349Z,3.79
2023-03-04T19:20:52.363Z,3.57
2023-03-04T19:23:27.394Z,3.53
2023-03-04T19:26:01.156Z,3.65
2023-03-04T19:28:36.690Z,3.54
2023-03-04T19:31:11.379Z,3.55
2023-03-04T19:33:44.341Z,3.60
2023-03-04T19:36:17.772Z,3.70
2023-03-04T19:38:51.044Z,3.69
2023-03-04T19:41:24.569Z,3.45
2023-03-04T19:43:59.776Z,3.77
2023-03-04T19:46:32.918Z,3.68
2023-03-04T19:49:06.051Z,3.71
2023-03-04T19:51:39.147Z,3.68
2023-03-04T19:54:12.119Z,3.58
2023-03-04T19:56:45.074Z,3.57
2023-03-04T19:59:19.364Z,3.48
2023-03-04T20:01:52.265Z,3.68
2023-03-04T20:04:25.438Z,3.55
2023-03-04T20:06:58.495Z,3.62
2023-03-04T20:09:31.313Z,3.50
2023-03-04T20:12:04.440Z,3.69
2023-03-04T20:14:39.341Z,3.41
2023-03-04T20:17:12.365Z,3.53
2023-03-04T20:19:46.151Z,3.62
2023-03-04T20:22:19.149Z,3.63
2023-03-04T20:24:53.852Z,3.57
2023-03-04T20:27:26.746Z,3.51
2023-03-04T20:30:03.653Z,3.45
2023-03-04T20:32:36.968Z,3.47
2023-03-04T20:35:14.074Z,3.52
2023-03-04T20:37:47.445Z,3.67
2023-03-04T20:40:20.544Z,3.44
2023-03-04T20:42:53.429Z,3.64
2023-03-04T20:45:27.666Z,3.59
2023-03-04T20:48:00.734Z,3.47
2023-03-04T20:50:33.522Z,3.34
2023-03-04T20:53:06.675Z,3.46
2023-03-04T20:55:39.509Z,3.37
2023-03-04T20:58:12.504Z,3.43
2023-03-04T21:00:48.544Z,3.51
2023-03-04T21:03:21.482Z,3.58
2023-03-04T21:05:54.285Z,3.38
2023-03-04T21:08:27.065Z,3.37
2023-03-04T21:10:59.988Z,3.30
2023-03-04T21:13:33.099Z,3.31
2023-03-04T21:16:13.162Z,3.32
2023-03-04T21:18:46.181Z,3.32
2023-03-04T21:21:22.181Z,3.31
2023-03-04T21:23:57.097Z,3.39
2023-03-04T21:26:31.173Z,3.41
2023-03-04T21:29:04.477Z,3.29
2023-03-04T21:31:42.547Z,3.62
2023-03-04T21:34:18.576Z,3.48
2023-03-04T21:36:52.370Z,3.52
2023-03-04T21:39:26.155Z,3.18
2023-03-04T21:42:00.442Z,3.51
2023-03-04T21:44:48.685Z,3.35
2023-03-04T21:47:23.963Z,3.24
2023-03-04T21:49:56.792Z,3.16
2023-03-04T21:52:30.024Z,3.35
2023-03-04T21:55:02.958Z,3.34
2023-03-04T21:57:35.738Z,3.35
2023-03-04T22:00:10.598Z,3.28
2023-03-04T22:02:48.050Z,3.35
2023-03-04T22:05:20.804Z,3.33
2023-03-04T22:07:53.733Z,3.33
2023-03-04T22:10:26.669Z,3.15
2023-03-04T22:13:00.407Z,3.23
2023-03-04T22:15:33.369Z,3.26
2023-03-04T22:18:10.182Z,3.33
2023-03-04T22:20:45.233Z,3.38
2023-03-04T22:23:20.147Z,3.50
2023-03-04T22:25:53.013Z,3.34
2023-03-04T22:28:28.442Z,3.33
2023-03-04T22:31:01.995Z,3.40
2023-03-04T22:33:37.299Z,3.24
2023-03-04T22:36:10.749Z,3.40
2023-03-04T22:38:44.774Z,3.44
2023-03-04T22:41:19.028Z,3.37
2023-03-04T22:43:52.386Z,3.26
2023-03-04T22:46:28.222Z,3.32
2023-03-04T22:49:05.453Z,3.31
2023-03-04T22:51:41.214Z,3.54
2023-03-04T22:54:15.230Z,3.38
2023-03-04T22:56:48.286Z,3.30
2023-03-04T22:59:21.379Z,3.38
2023-03-04T23:01:54.287Z,3.41
2023-03-04T23:04:28.701Z,3.40
2023-03-04T23:07:01.690Z,3.30
2023-03-04T23:09:34.984Z,3.22
2023-03-04T23:12:09.072Z,3.46
2023-03-04T23:14:44.888Z,3.28
2023-03-04T23:17:17.929Z,3.24
2023-03-04T23:19:52.275Z,3.34
2023-03-04T23:22:25.152Z,3.24
2023-03-04T23:24:58.907Z,3.18
2023-03-04T23:27:31.836Z,3.36
2023-03-04T23:30:06.041Z,3.43
2023-03-04T23:32:39.048Z,3.29
2023-03-04T23:35:13.616Z,3.55
2023-03-04T23:37:46.574Z,3.36
2023-03-04T23:40:20.151Z,3.37
2023-03-04T23:42:52.977Z,3.36
2023-03-04T23:45:25.850Z,3.34
2023-03-04T23:47:58.676Z,3.30
2023-03-04T23:50:34.158Z,3.26
2023-03-04T23:53:06.976Z,3.40
2023-03-04T23:55:42.428Z,3.20
2023-03-04T23:58:15.754Z,3.49
